createdAt,value
2018-04-19T00:01:27.588Z,13.83
2018-04-19T00:03:55.236Z,12.20
2018-04-19T00:06:22.889Z,8.87
2018-04-19T00:08:50.665Z,9.13
2018-04-19T00:11:18.406Z,8.43
2018-04-19T00:13:46.131Z,11.13
2018-04-19T00:16:13.793Z,9.80
2018-04-19T00:18:41.436Z,8.97
2018-04-19T00:21:09.836Z,10.63
2018-04-19T00:23:37.464Z,9.07
2018-04-19T00:26:05.013Z,8.10
2018-04-19T00:28:32.634Z,11.20
2018-04-19T00:31:00.280Z,12.27
2018-04-19T00:33:27.963Z,12.50
2018-04-19T00:35:55.571Z,30.87
2018-04-19T00:38:23.200Z,19.17
2018-04-19T00:40:50.836Z,19.50
2018-04-19T00:43:20.568Z,19.80
2018-04-19T00:45:48.251Z,30.40
2018-04-19T00:48:15.879Z,31.93
2018-04-19T00:50:43.505Z,43.13
2018-04-19T00:53:12.164Z,19.40
2018-04-19T00:55:39.793Z,33.13
2018-04-19T00:58:07.480Z,22.10
2018-04-19T01:00:35.059Z,37.33
2018-04-19T01:03:02.740Z,14.37
2018-04-19T01:05:30.704Z,11.03
2018-04-19T01:07:58.382Z,9.83
2018-04-19T01:10:25.970Z,9.20
2018-04-19T01:12:53.616Z,8.10
2018-04-19T01:15:21.246Z,13.87
2018-04-19T01:17:48.857Z,10.43
2018-04-19T01:20:16.507Z,11.00
2018-04-19T01:22:44.131Z,9.03
2018-04-19T01:25:13.343Z,9.90
2018-04-19T01:27:40.960Z,11.20
2018-04-19T01:30:08.628Z,11.10
2018-04-19T01:32:36.255Z,8.50
2018-04-19T01:35:03.852Z,8.90
2018-04-19T01:37:31.450Z,9.80
2018-04-19T01:39:59.077Z,9.43
2018-04-19T01:42:26.648Z,8.80
2018-04-19T01:44:54.238Z,9.27
2018-04-19T01:47:22.008Z,8.60
2018-04-19T01:49:49.594Z,9.53
2018-04-19T01:52:17.162Z,9.20
2018-04-19T01:54:44.703Z,10.70
2018-04-19T01:57:12.485Z,9.40
2018-04-19T01:59:39.993Z,10.10
2018-04-19T02:02:08.033Z,10.43
2018-04-19T02:04:35.664Z,9.40
2018-04-19T02:07:03.247Z,10.20
2018-04-19T02:09:30.896Z,10.03
2018-04-19T02:11:58.476Z,11.00
2018-04-19T02:14:26.114Z,10.90
2018-04-19T02:16:53.777Z,10.27
2018-04-19T02:19:22.379Z,10.23
2018-04-19T02:21:49.954Z,9.93
2018-04-19T02:24:17.524Z,10.23
2018-04-19T02:26:45.040Z,10.63
2018-04-19T02:29:12.791Z,9.80
2018-04-19T02:31:40.412Z,11.73
2018-04-19T02:34:07.939Z,11.43
2018-04-19T02:36:35.594Z,12.27
2018-04-19T02:39:03.166Z,12.57
2018-04-19T02:41:30.900Z,11.13
2018-04-19T02:43:58.430Z,11.97
2018-04-19T02:46:26.059Z,10.47
2018-04-19T02:48:53.625Z,9.80
2018-04-19T02:51:21.160Z,11.80
2018-04-19T02:53:49.004Z,11.20
2018-04-19T02:56:17.004Z,11.70
2018-04-19T02:58:44.953Z,12.03
2018-04-19T03:01:12.526Z,12.60
2018-04-19T03:03:40.160Z,10.30
2018-04-19T03:06:07.767Z,11.20
2018-04-19T03:08:35.363Z,11.10
2018-04-19T03:11:02.967Z,10.93
2018-04-19T03:13:30.758Z,13.07
2018-04-19T03:15:58.412Z,11.33
2018-04-19T03:18:26.081Z,10.83
2018-04-19T03:20:53.727Z,11.53
2018-04-19T03:23:21.318Z,10.20
2018-04-19T03:25:48.935Z,11.60
2018-04-19T03:28:16.582Z,10.60
2018-04-19T03:30:44.198Z,11.07
2018-04-19T03:33:13.350Z,11.43
2018-04-19T03:35:40.964Z,11.37
2018-04-19T03:38:08.536Z,10.17
2018-04-19T03:40:36.118Z,10.83
2018-04-19T03:43:03.769Z,10.90
2018-04-19T03:45:31.290Z,11.27
2018-04-19T03:47:58.813Z,11.67
2018-04-19T03:50:26.352Z,10.70
2018-04-19T03:52:53.853Z,10.03
2018-04-19T03:55:21.408Z,11.43
2018-04-19T04:00:20.686Z,11.90
2018-04-19T04:02:48.337Z,11.50
2018-04-19T04:05:15.862Z,12.13
2018-04-19T04:07:43.385Z,11.90
2018-04-19T04:10:10.976Z,12.00
2018-04-19T04:12:38.547Z,12.20
2018-04-19T04:15:06.206Z,11.00
2018-04-19T04:17:45.446Z,10.70
2018-04-19T04:20:24.721Z,12.43
2018-04-19T04:23:04.985Z,12.63
2018-04-19T04:25:32.611Z,12.70
2018-04-19T04:28:00.246Z,11.03
2018-04-19T04:30:27.886Z,11.03
2018-04-19T04:32:55.552Z,11.00
2018-04-19T04:35:23.213Z,11.80
2018-04-19T04:37:50.828Z,11.60
2018-04-19T04:40:18.469Z,13.63
2018-04-19T04:42:46.102Z,12.13
2018-04-19T04:45:13.682Z,11.30
2018-04-19T04:47:41.353Z,12.13
2018-04-19T04:50:08.934Z,11.33
2018-04-19T04:52:36.516Z,11.27
2018-04-19T04:55:04.113Z,11.60
2018-04-19T04:57:31.780Z,14.53
2018-04-19T04:59:59.371Z,11.43
2018-04-19T05:02:27.058Z,12.37
2018-04-19T05:04:54.653Z,11.70
2018-04-19T05:07:23.058Z,12.03
2018-04-19T05:09:50.695Z,11.30
2018-04-19T05:12:18.389Z,13.17
2018-04-19T05:14:46.024Z,10.90
2018-04-19T05:17:13.688Z,10.83
2018-04-19T05:19:41.300Z,11.63
2018-04-19T05:22:08.908Z,11.60
2018-04-19T05:24:36.473Z,12.37
2018-04-19T05:27:04.168Z,11.60
2018-04-19T05:29:31.797Z,10.83
2018-04-19T05:31:59.429Z,12.03
2018-04-19T05:34:27.090Z,10.77
2018-04-19T05:36:54.716Z,10.97
2018-04-19T05:39:22.340Z,11.17
2018-04-19T05:41:50.034Z,9.40
2018-04-19T05:44:17.551Z,10.83
2018-04-19T05:46:45.112Z,11.80
2018-04-19T05:49:12.747Z,10.27
2018-04-19T05:51:40.392Z,9.00
2018-04-19T05:54:08.077Z,10.30
2018-04-19T05:56:35.783Z,10.00
2018-04-19T05:59:03.372Z,8.67
2018-04-19T06:01:30.977Z,8.90
2018-04-19T06:03:58.683Z,10.47
2018-04-19T06:06:26.339Z,10.27
2018-04-19T06:08:54.011Z,9.30
2018-04-19T06:11:25.013Z,12.63
2018-04-19T06:13:52.679Z,9.73
2018-04-19T06:16:20.349Z,9.23
2018-04-19T06:18:47.939Z,9.90
2018-04-19T06:21:15.552Z,8.70
2018-04-19T06:23:43.149Z,8.33
2018-04-19T06:26:10.795Z,8.67
2018-04-19T06:28:38.415Z,7.53
2018-04-19T06:31:06.359Z,8.30
2018-04-19T06:33:34.217Z,7.57
2018-04-19T06:36:01.928Z,8.60
2018-04-19T06:38:29.659Z,8.10
2018-04-19T06:40:57.316Z,9.30
2018-04-19T06:43:24.918Z,10.50
2018-04-19T06:45:52.553Z,11.70
2018-04-19T06:48:20.214Z,10.97
2018-04-19T06:50:47.826Z,10.33
2018-04-19T06:53:15.632Z,10.80
2018-04-19T06:55:43.306Z,11.30
2018-04-19T06:58:10.959Z,10.67
2018-04-19T07:00:38.710Z,10.30
2018-04-19T07:03:06.339Z,9.80
2018-04-19T07:05:34.178Z,12.20
2018-04-19T07:08:01.795Z,14.30
2018-04-19T07:10:29.401Z,12.30
2018-04-19T07:12:57.049Z,14.63
2018-04-19T07:15:24.977Z,12.10
2018-04-19T07:17:52.633Z,11.60
2018-04-19T07:20:20.301Z,12.13
2018-04-19T07:22:47.958Z,12.00
2018-04-19T07:25:15.586Z,10.80
2018-04-19T07:27:43.272Z,11.40
2018-04-19T07:30:10.900Z,12.90
2018-04-19T07:32:38.552Z,12.90
2018-04-19T07:35:06.424Z,12.00
2018-04-19T07:37:34.090Z,12.40
2018-04-19T07:40:01.720Z,12.40
2018-04-19T07:42:29.409Z,11.67
2018-04-19T07:44:57.056Z,11.67
2018-04-19T07:47:24.697Z,12.93
2018-04-19T07:49:52.385Z,11.53
2018-04-19T07:52:19.983Z,10.47
2018-04-19T07:54:47.585Z,11.90
2018-04-19T07:57:15.550Z,11.97
2018-04-19T07:59:43.285Z,11.63
2018-04-19T08:02:10.956Z,10.27
2018-04-19T08:04:38.582Z,10.30
2018-04-19T08:07:06.237Z,10.80
2018-04-19T08:09:33.977Z,10.03
2018-04-19T08:12:01.689Z,9.73
2018-04-19T08:14:29.353Z,9.87
2018-04-19T08:16:56.993Z,9.20
2018-04-19T08:19:24.624Z,11.57
2018-04-19T08:21:52.347Z,10.27
2018-04-19T08:24:20.016Z,8.13
2018-04-19T08:26:48.614Z,9.00
2018-04-19T08:29:16.251Z,9.00
2018-04-19T08:31:46.991Z,10.50
2018-04-19T08:34:14.784Z,8.80
2018-04-19T08:36:43.423Z,8.10
2018-04-19T08:39:11.887Z,8.80
2018-04-19T08:41:39.846Z,7.63
2018-04-19T08:44:07.440Z,8.33
2018-04-19T08:46:35.170Z,7.97
2018-04-19T08:49:02.787Z,8.50
2018-04-19T08:51:30.367Z,8.40
2018-04-19T08:53:58.748Z,8.17
2018-04-19T08:56:27.151Z,6.53
2018-04-19T08:58:57.869Z,8.17
2018-04-19T09:01:25.548Z,8.70
2018-04-19T09:03:53.175Z,7.23
2018-04-19T09:06:21.420Z,7.60
2018-04-19T09:08:49.107Z,6.77
2018-04-19T09:11:17.329Z,8.23
2018-04-19T09:13:44.998Z,6.53
2018-04-19T09:16:12.579Z,7.13
2018-04-19T09:18:40.247Z,6.13
2018-04-19T09:21:07.921Z,6.63
2018-04-19T09:23:37.988Z,5.60
2018-04-19T09:26:05.626Z,6.80
2018-04-19T09:28:35.461Z,7.33
2018-04-19T09:31:03.086Z,6.20
2018-04-19T09:33:34.488Z,7.20
2018-04-19T09:36:02.153Z,6.47
2018-04-19T09:38:30.064Z,7.30
2018-04-19T09:40:58.422Z,6.53
2018-04-19T09:43:26.214Z,5.57
2018-04-19T09:45:53.821Z,5.80
2018-04-19T09:48:21.396Z,5.97
2018-04-19T09:50:49.102Z,6.53
2018-04-19T09:53:16.945Z,5.93
2018-04-19T09:55:44.622Z,5.50
2018-04-19T09:58:12.345Z,6.37
2018-04-19T10:00:45.695Z,6.57
2018-04-19T10:03:19.134Z,5.87
2018-04-19T10:05:47.791Z,5.97
2018-04-19T10:08:15.415Z,5.40
2018-04-19T10:10:43.033Z,5.90
2018-04-19T10:13:10.675Z,5.43
2018-04-19T10:15:38.426Z,6.07
2018-04-19T10:18:07.369Z,7.27
2018-04-19T10:20:34.973Z,6.20
2018-04-19T10:23:03.797Z,6.30
2018-04-19T10:25:31.508Z,5.50
2018-04-19T10:27:59.160Z,5.67
2018-04-19T10:30:26.909Z,5.87
2018-04-19T10:32:54.569Z,6.97
2018-04-19T10:35:24.219Z,5.57
2018-04-19T10:37:52.084Z,5.10
2018-04-19T10:40:19.664Z,6.20
2018-04-19T10:42:47.267Z,5.57
2018-04-19T10:45:20.715Z,5.33
2018-04-19T10:47:48.390Z,5.97
2018-04-19T10:50:16.058Z,4.70
2018-04-19T10:52:54.030Z,4.90
2018-04-19T10:55:21.768Z,4.67
2018-04-19T10:57:49.463Z,5.20
2018-04-19T11:00:17.111Z,5.57
2018-04-19T11:02:44.847Z,4.83
2018-04-19T11:05:12.645Z,5.93
2018-04-19T11:07:40.459Z,4.70
2018-04-19T11:10:08.235Z,3.40
2018-04-19T11:12:36.716Z,3.03
2018-04-19T11:15:04.318Z,4.23
2018-04-19T11:17:31.916Z,3.53
2018-04-19T11:19:59.482Z,3.10
2018-04-19T11:22:29.196Z,3.40
2018-04-19T11:24:59.895Z,2.87
2018-04-19T11:27:27.635Z,2.97
2018-04-19T11:29:57.869Z,3.23
2018-04-19T11:32:26.288Z,3.00
2018-04-19T11:34:56.849Z,2.67
2018-04-19T11:37:24.451Z,3.23
2018-04-19T11:39:52.089Z,2.80
2018-04-19T11:42:19.718Z,2.80
2018-04-19T11:44:47.344Z,3.47
2018-04-19T11:47:14.952Z,2.73
2018-04-19T11:49:42.545Z,2.70
2018-04-19T11:52:10.246Z,3.80
2018-04-19T11:54:37.916Z,3.10
2018-04-19T11:57:05.587Z,2.50
2018-04-19T11:59:33.434Z,2.83
2018-04-19T12:02:01.066Z,3.20
2018-04-19T12:04:28.763Z,3.17
2018-04-19T12:06:56.366Z,3.80
2018-04-19T12:09:24.033Z,1.97
2018-04-19T12:11:51.688Z,2.80
2018-04-19T12:14:19.340Z,3.20
2018-04-19T12:16:48.616Z,2.70
2018-04-19T12:19:16.280Z,2.00
2018-04-19T12:21:43.832Z,2.13
2018-04-19T12:24:11.520Z,2.67
2018-04-19T12:26:39.154Z,2.50
2018-04-19T12:29:06.920Z,2.67
2018-04-19T12:31:34.648Z,2.30
2018-04-19T12:34:02.260Z,2.80
2018-04-19T12:36:29.946Z,2.37
2018-04-19T12:38:57.559Z,2.97
2018-04-19T12:41:25.619Z,3.13
2018-04-19T12:43:53.247Z,2.90
2018-04-19T12:46:20.817Z,2.87
2018-04-19T12:48:48.536Z,3.00
2018-04-19T12:51:17.190Z,2.57
2018-04-19T12:53:44.811Z,3.13
2018-04-19T12:56:12.515Z,3.57
2018-04-19T12:58:44.013Z,3.43
2018-04-19T13:01:12.332Z,3.90
2018-04-19T13:03:41.004Z,4.03
2018-04-19T13:06:08.576Z,3.27
2018-04-19T13:08:36.271Z,3.10
2018-04-19T13:11:03.881Z,3.10
2018-04-19T13:13:31.645Z,2.90
2018-04-19T13:18:33.195Z,2.97
2018-04-19T13:21:00.812Z,2.63
2018-04-19T13:23:28.419Z,3.37
2018-04-19T13:25:56.193Z,3.20
2018-04-19T13:28:23.820Z,3.00
2018-04-19T13:30:52.115Z,3.20
2018-04-19T13:33:19.728Z,3.30
2018-04-19T13:35:47.683Z,3.50
2018-04-19T13:38:15.327Z,3.53
2018-04-19T13:40:42.899Z,3.47
2018-04-19T13:43:10.505Z,3.13
2018-04-19T13:45:38.662Z,3.07
2018-04-19T13:48:06.347Z,2.60
2018-04-19T13:50:33.979Z,2.90
2018-04-19T13:53:01.788Z,3.10
2018-04-19T13:55:29.564Z,2.50
2018-04-19T13:57:57.338Z,2.80
2018-04-19T14:00:24.988Z,3.33
2018-04-19T14:02:53.139Z,2.70
2018-04-19T14:05:20.908Z,2.37
2018-04-19T14:08:00.209Z,3.27
2018-04-19T14:10:28.860Z,2.60
2018-04-19T14:12:56.513Z,2.50
2018-04-19T14:15:24.306Z,3.30
2018-04-19T14:17:51.943Z,2.63
2018-04-19T14:20:19.546Z,2.10
2018-04-19T14:22:47.170Z,2.97
2018-04-19T14:25:14.906Z,2.80
2018-04-19T14:27:42.489Z,2.60
2018-04-19T14:30:10.170Z,2.77
2018-04-19T14:32:37.824Z,1.83
2018-04-19T14:35:05.502Z,1.60
2018-04-19T14:37:33.346Z,1.70
2018-04-19T14:40:00.936Z,2.00
2018-04-19T14:42:28.528Z,1.97
2018-04-19T14:44:56.122Z,2.67
2018-04-19T14:47:23.798Z,2.60
2018-04-19T14:49:51.431Z,2.47
2018-04-19T14:52:19.027Z,3.17
2018-04-19T14:54:46.650Z,3.27
2018-04-19T14:57:14.243Z,2.87
2018-04-19T14:59:41.948Z,4.00
2018-04-19T15:02:09.554Z,4.00
2018-04-19T15:04:37.144Z,3.33
2018-04-19T15:07:04.795Z,4.07
2018-04-19T15:09:32.484Z,3.70
2018-04-19T15:12:00.101Z,3.60
2018-04-19T15:14:27.679Z,3.00
2018-04-19T15:16:55.269Z,3.43
2018-04-19T15:19:23.015Z,3.20
2018-04-19T15:21:50.611Z,3.80
2018-04-19T15:24:18.201Z,2.97
2018-04-19T15:26:45.876Z,4.37
2018-04-19T15:29:13.911Z,3.87
2018-04-19T15:31:41.867Z,3.27
2018-04-19T15:34:09.437Z,2.80
2018-04-19T15:36:37.108Z,2.47
2018-04-19T15:39:05.508Z,3.07
2018-04-19T15:41:33.165Z,3.20
2018-04-19T15:44:00.747Z,3.10
2018-04-19T15:46:28.535Z,2.13
2018-04-19T15:48:56.099Z,2.77
2018-04-19T15:51:23.694Z,2.67
2018-04-19T15:53:51.359Z,2.77
2018-04-19T15:56:18.944Z,2.90
2018-04-19T15:58:46.584Z,3.30
2018-04-19T16:01:14.149Z,3.50
2018-04-19T16:03:46.138Z,3.50
2018-04-19T16:06:13.809Z,2.93
2018-04-19T16:08:41.402Z,2.90
2018-04-19T16:11:11.288Z,2.97
2018-04-19T16:13:38.971Z,4.17
2018-04-19T16:16:06.635Z,3.20
2018-04-19T16:18:34.327Z,3.30
2018-04-19T16:21:01.914Z,3.47
2018-04-19T16:23:29.478Z,3.70
2018-04-19T16:25:57.101Z,3.50
2018-04-19T16:28:25.280Z,2.70
2018-04-19T16:30:52.880Z,4.17
2018-04-19T16:33:21.344Z,3.50
2018-04-19T16:35:48.922Z,3.60
2018-04-19T16:38:16.526Z,2.77
2018-04-19T16:40:44.156Z,2.97
2018-04-19T16:43:12.010Z,3.43
2018-04-19T16:45:39.808Z,3.67
2018-04-19T16:48:07.393Z,5.50
2018-04-19T16:50:34.991Z,5.43
2018-04-19T16:53:02.738Z,3.90
2018-04-19T16:55:30.600Z,6.20
2018-04-19T16:57:58.795Z,5.73
2018-04-19T17:00:26.429Z,4.90
2018-04-19T17:02:54.004Z,4.20
2018-04-19T17:05:23.166Z,4.43
2018-04-19T17:07:51.224Z,3.93
2018-04-19T17:10:18.964Z,4.50
2018-04-19T17:12:46.618Z,4.73
2018-04-19T17:15:14.355Z,8.10
2018-04-19T17:17:41.920Z,6.97
2018-04-19T17:20:09.476Z,5.40
2018-04-19T17:22:37.014Z,5.47
2018-04-19T17:27:36.386Z,6.00
2018-04-19T17:30:04.101Z,4.70
2018-04-19T17:32:32.039Z,4.13
2018-04-19T17:34:59.651Z,3.40
2018-04-19T17:37:27.424Z,3.00
2018-04-19T17:39:55.460Z,3.43
2018-04-19T17:42:23.100Z,3.07
2018-04-19T17:44:50.743Z,4.07
2018-04-19T17:47:18.348Z,2.97
2018-04-19T17:49:46.178Z,3.93
2018-04-19T17:52:13.797Z,2.93
2018-04-19T17:54:41.554Z,3.30
2018-04-19T17:57:09.341Z,3.70
2018-04-19T17:59:37.047Z,3.90
2018-04-19T18:02:05.069Z,4.30
2018-04-19T18:04:32.765Z,4.03
2018-04-19T18:07:00.477Z,3.70
2018-04-19T18:09:28.215Z,3.63
2018-04-19T18:11:55.936Z,4.97
2018-04-19T18:14:23.800Z,3.20
2018-04-19T18:16:51.527Z,4.13
2018-04-19T18:19:19.508Z,3.80
2018-04-19T18:21:47.448Z,3.93
2018-04-19T18:24:15.095Z,3.90
2018-04-19T18:26:42.715Z,4.80
2018-04-19T18:29:11.971Z,4.73
2018-04-19T18:31:39.736Z,4.60
2018-04-19T18:34:07.458Z,4.23
2018-04-19T18:36:35.153Z,3.50
2018-04-19T18:39:02.793Z,3.70
2018-04-19T18:41:30.503Z,3.80
2018-04-19T18:43:58.741Z,3.93
2018-04-19T18:46:26.419Z,4.47
2018-04-19T18:48:54.180Z,5.43
2018-04-19T18:51:22.124Z,5.30
2018-04-19T18:53:49.790Z,6.00
2018-04-19T18:56:17.388Z,6.37
2018-04-19T18:58:45.277Z,7.20
2018-04-19T19:01:13.048Z,7.17
2018-04-19T19:03:40.752Z,5.53
2018-04-19T19:06:08.440Z,6.50
2018-04-19T19:08:36.199Z,4.90
2018-04-19T19:11:04.004Z,4.17
2018-04-19T19:13:31.842Z,3.97
2018-04-19T19:16:14.438Z,4.30
2018-04-19T19:18:53.932Z,3.40
2018-04-19T19:21:21.620Z,4.93
2018-04-19T19:23:49.515Z,3.30
2018-04-19T19:26:17.290Z,3.27
2018-04-19T19:28:44.931Z,4.20
2018-04-19T19:31:12.696Z,4.33
2018-04-19T19:33:40.388Z,4.20
2018-04-19T19:36:08.139Z,3.97
2018-04-19T19:38:36.108Z,4.17
2018-04-19T19:41:03.811Z,3.90
2018-04-19T19:43:32.695Z,3.70
2018-04-19T19:46:00.383Z,3.87
2018-04-19T19:48:29.361Z,3.37
2018-04-19T19:50:57.080Z,4.57
2018-04-19T19:53:24.706Z,4.30
2018-04-19T19:55:52.615Z,4.40
2018-04-19T19:58:20.500Z,4.23
2018-04-19T20:00:48.286Z,4.70
2018-04-19T20:05:54.950Z,5.10
2018-04-19T20:08:22.781Z,4.70
2018-04-19T20:10:50.408Z,5.00
2018-04-19T20:13:18.056Z,5.10
2018-04-19T20:15:45.943Z,4.57
2018-04-19T20:18:13.557Z,5.00
2018-04-19T20:20:41.200Z,5.80
2018-04-19T20:23:09.180Z,5.93
2018-04-19T20:25:36.871Z,5.53
2018-04-19T20:28:04.600Z,5.17
2018-04-19T20:30:32.357Z,4.80
2018-04-19T20:33:00.759Z,4.87
2018-04-19T20:35:28.356Z,5.13
2018-04-19T20:37:55.983Z,4.60
2018-04-19T20:40:23.699Z,4.40
2018-04-19T20:42:51.409Z,5.60
2018-04-19T20:45:20.763Z,4.97
2018-04-19T20:47:48.436Z,4.87
2018-04-19T20:50:16.153Z,4.13
2018-04-19T20:52:43.761Z,5.53
2018-04-19T20:55:11.533Z,4.23
2018-04-19T20:57:39.126Z,5.07
2018-04-19T21:00:06.787Z,5.13
2018-04-19T21:02:34.497Z,5.03
2018-04-19T21:05:02.149Z,4.40
2018-04-19T21:07:29.901Z,4.90
2018-04-19T21:09:57.586Z,4.60
2018-04-19T21:12:25.568Z,4.60
2018-04-19T21:14:53.214Z,4.70
2018-04-19T21:17:21.582Z,9.00
2018-04-19T21:19:49.272Z,5.70
2018-04-19T21:22:16.930Z,5.63
2018-04-19T21:24:44.606Z,5.67
2018-04-19T21:27:12.173Z,6.40
2018-04-19T21:29:39.776Z,7.67
2018-04-19T21:32:07.464Z,9.53
2018-04-19T21:34:35.120Z,8.50
2018-04-19T21:37:02.736Z,10.97
2018-04-19T21:39:30.439Z,9.83
2018-04-19T21:41:58.103Z,10.80
2018-04-19T21:44:25.694Z,10.20
2018-04-19T21:46:53.312Z,9.60
2018-04-19T21:49:21.036Z,8.90
2018-04-19T21:51:48.658Z,6.43
2018-04-19T21:54:16.207Z,4.67
2018-04-19T21:56:43.888Z,5.20
2018-04-19T21:59:11.445Z,5.00
2018-04-19T22:01:38.973Z,4.40
2018-04-19T22:04:06.515Z,4.50
2018-04-19T22:06:34.184Z,4.90
2018-04-19T22:09:01.705Z,5.53
2018-04-19T22:11:29.281Z,4.70
2018-04-19T22:13:56.873Z,5.10
2018-04-19T22:16:24.439Z,5.20
2018-04-19T22:18:52.000Z,4.07
2018-04-19T22:21:19.862Z,5.20
2018-04-19T22:23:47.543Z,5.20
2018-04-19T22:26:15.115Z,4.40
2018-04-19T22:28:42.828Z,4.30
2018-04-19T22:31:10.443Z,4.70
2018-04-19T22:33:38.104Z,5.00
2018-04-19T22:36:05.738Z,5.10
2018-04-19T22:38:33.397Z,4.90
2018-04-19T22:41:01.106Z,5.20
2018-04-19T22:43:28.783Z,4.70
2018-04-19T22:45:56.501Z,5.20
2018-04-19T22:48:24.165Z,6.40
2018-04-19T22:50:51.809Z,5.20
2018-04-19T22:53:19.474Z,4.80
2018-04-19T22:55:47.044Z,4.83
2018-04-19T22:58:14.561Z,5.20
2018-04-19T23:00:42.060Z,5.30
2018-04-19T23:03:10.181Z,6.30
2018-04-19T23:05:37.848Z,5.00
2018-04-19T23:08:05.451Z,5.20
2018-04-19T23:10:33.113Z,4.67
2018-04-19T23:13:00.709Z,5.60
2018-04-19T23:15:28.287Z,4.80
2018-04-19T23:17:55.949Z,5.97
2018-04-19T23:20:23.526Z,5.10
2018-04-19T23:22:51.052Z,6.23
2018-04-19T23:25:18.685Z,5.97
2018-04-19T23:27:46.296Z,5.57
2018-04-19T23:30:13.872Z,5.80
2018-04-19T23:32:41.526Z,4.90
2018-04-19T23:35:09.790Z,5.50
2018-04-19T23:37:37.502Z,5.80
2018-04-19T23:40:04.981Z,5.93
2018-04-19T23:42:32.545Z,5.67
2018-04-19T23:45:00.060Z,5.43
2018-04-19T23:47:27.866Z,5.80
2018-04-19T23:49:55.524Z,6.10
2018-04-19T23:52:23.148Z,6.00
2018-04-19T23:54:50.749Z,4.60
2018-04-19T23:57:18.428Z,5.53
2018-04-19T23:59:46.054Z,5.77
